Time;durP1;ratioP1;P1;durP2;ratioP2;P2;SDS_P1;SDS_P2;PMS_P1;PMS_P2;Temp;Humidity;BMP_temperature;BMP_pressure;BME280_temperature;BME280_humidity;BME280_pressure;Samples;Min_cycle;Max_cycle;Signal;HPM_P1;HPM_P2
2021/10/10 00:01:28;;;;;;;29.83;17.58;;;10.70;90.60;;;;;;4974639;28;20097;-57
2021/10/10 00:03:55;;;;;;;29.42;17.90;;;10.70;90.60;;;;;;4954478;28;20062;-52
2021/10/10 00:06:22;;;;;;;28.65;17.83;;;10.80;90.60;;;;;;4602177;28;10000255;-56
2021/10/10 00:08:49;;;;;;;27.73;19.73;;;10.70;90.60;;;;;;4974293;28;20050;-53
2021/10/10 00:11:16;;;;;;;26.80;18.30;;;10.70;90.60;;;;;;4953353;28;20103;-59
2021/10/10 00:13:42;;;;;;;32.05;19.77;;;10.70;90.60;;;;;;4977420;28;20793;-61
2021/10/10 00:16:09;;;;;;;30.38;17.83;;;10.70;90.50;;;;;;4956826;28;20050;-58
2021/10/10 00:18:36;;;;;;;30.48;18.75;;;10.70;90.90;;;;;;4974483;28;20046;-56
2021/10/10 00:21:03;;;;;;;26.42;17.13;;;10.60;90.60;;;;;;4974204;28;20051;-57
2021/10/10 00:23:30;;;;;;;29.25;19.50;;;10.70;90.70;;;;;;4977013;28;20105;-57
2021/10/10 00:25:56;;;;;;;32.17;19.38;;;10.70;90.70;;;;;;4960126;28;20488;-57
2021/10/10 00:28:23;;;;;;;36.15;18.65;;;10.70;90.70;;;;;;4972681;28;20105;-58
2021/10/10 00:30:50;;;;;;;25.42;17.83;;;10.70;90.80;;;;;;4954798;28;20078;-57
2021/10/10 00:33:23;;;;;;;30.05;18.77;;;10.70;90.80;;;;;;4970124;28;20059;-57
2021/10/10 00:35:50;;;;;;;29.88;18.10;;;10.80;90.80;;;;;;4970872;28;20086;-57
2021/10/10 00:38:17;;;;;;;26.38;17.65;;;10.80;90.80;;;;;;4951557;28;20118;-58
2021/10/10 00:40:44;;;;;;;28.70;19.95;;;10.80;90.80;;;;;;4976372;28;20050;-58
2021/10/10 00:43:10;;;;;;;26.95;19.20;;;10.80;90.80;;;;;;4973417;28;20490;-60
2021/10/10 00:45:37;;;;;;;27.17;18.55;;;10.80;91.10;;;;;;4940011;28;20551;-58
2021/10/10 00:48:05;;;;;;;27.70;18.85;;;10.80;90.80;;;;;;4960259;28;20051;-53
2021/10/10 00:50:38;;;;;;;31.88;18.50;;;10.90;90.80;;;;;;4955590;28;20117;-59
2021/10/10 00:53:05;;;;;;;31.73;19.77;;;10.80;90.80;;;;;;4981062;28;20105;-57
2021/10/10 00:55:32;;;;;;;31.45;20.30;;;10.90;90.70;;;;;;4957335;28;20133;-57
2021/10/10 00:57:59;;;;;;;27.85;17.60;;;10.80;90.70;;;;;;4965184;28;20493;-58
2021/10/10 01:00:26;;;;;;;29.67;18.20;;;10.80;90.70;;;;;;4974483;28;20051;-59
2021/10/10 01:02:57;;;;;;;25.05;18.17;;;10.80;90.70;;;;;;4947346;28;20074;-57
2021/10/10 01:05:25;;;;;;;26.20;18.52;;;10.90;90.80;;;;;;4984953;28;20494;-57
2021/10/10 01:07:52;;;;;;;27.48;18.88;;;10.90;90.80;;;;;;4959946;28;20078;-58
2021/10/10 01:10:19;;;;;;;31.20;18.73;;;10.90;90.80;;;;;;4949007;28;20455;-57
2021/10/10 01:12:46;;;;;;;31.08;18.80;;;10.80;90.80;;;;;;4979610;28;20106;-58
2021/10/10 01:15:13;;;;;;;28.50;19.20;;;10.90;90.90;;;;;;4979374;28;20046;-57
2021/10/10 01:17:40;;;;;;;29.67;19.30;;;10.80;90.80;;;;;;4973938;28;20152;-56
2021/10/10 01:20:08;;;;;;;26.80;19.27;;;10.80;90.70;;;;;;4959235;28;20094;-57
2021/10/10 01:22:35;;;;;;;31.67;21.80;;;10.90;90.90;;;;;;4974573;28;20062;-57
2021/10/10 01:25:02;;;;;;;28.83;19.00;;;10.80;90.70;;;;;;4987634;28;20092;-57
2021/10/10 01:27:29;;;;;;;30.67;20.58;;;10.80;90.70;;;;;;4965038;28;20231;-58
2021/10/10 01:29:56;;;;;;;27.38;18.42;;;10.90;90.70;;;;;;4978358;28;20137;-57
2021/10/10 01:32:23;;;;;;;29.75;19.75;;;10.80;90.70;;;;;;4978896;28;20725;-59
2021/10/10 01:34:50;;;;;;;34.78;19.38;;;10.80;90.70;;;;;;4979716;28;20043;-57
2021/10/10 01:37:17;;;;;;;28.73;19.33;;;10.70;90.80;;;;;;4974906;28;20109;-56
2021/10/10 01:39:44;;;;;;;29.77;19.65;;;10.70;90.80;;;;;;4977203;28;20553;-56
2021/10/10 01:42:10;;;;;;;31.58;19.25;;;10.70;90.90;;;;;;4974308;28;20078;-58
2021/10/10 01:44:37;;;;;;;31.75;18.48;;;10.70;90.90;;;;;;4984061;28;20097;-57
2021/10/10 01:47:04;;;;;;;31.60;20.60;;;10.60;90.90;;;;;;4974905;28;20102;-59
2021/10/10 01:49:30;;;;;;;29.88;18.98;;;10.60;90.90;;;;;;4964067;28;20532;-59
2021/10/10 01:51:57;;;;;;;27.67;18.33;;;10.70;91.00;;;;;;4970036;28;20054;-58
2021/10/10 01:54:24;;;;;;;34.67;21.95;;;10.60;90.90;;;;;;4974135;28;20082;-63
2021/10/10 01:56:51;;;;;;;31.40;19.40;;;10.70;90.90;;;;;;4983126;28;20105;-58
2021/10/10 01:59:17;;;;;;;29.75;19.40;;;10.70;90.90;;;;;;4963737;28;20078;-56
2021/10/10 02:01:44;;;;;;;30.52;19.23;;;10.70;90.90;;;;;;4961366;28;20109;-58
2021/10/10 02:04:11;;;;;;;27.33;19.00;;;10.70;90.90;;;;;;4964714;28;20065;-58
2021/10/10 02:06:38;;;;;;;30.83;19.17;;;10.60;90.90;;;;;;4628137;28;9999958;-59
2021/10/10 02:09:04;;;;;;;25.50;16.25;;;10.60;90.90;;;;;;4972624;28;20086;-58
2021/10/10 02:11:31;;;;;;;27.30;18.55;;;10.60;90.70;;;;;;4976906;28;20050;-58
2021/10/10 02:13:58;;;;;;;32.42;19.10;;;10.50;90.70;;;;;;4974225;28;20082;-58
2021/10/10 02:16:25;;;;;;;29.65;18.88;;;10.50;90.80;;;;;;4961044;28;20112;-57
2021/10/10 02:18:53;;;;;;;27.27;18.80;;;10.40;90.80;;;;;;4964757;28;20137;-57
2021/10/10 02:21:20;;;;;;;30.73;19.77;;;10.40;90.80;;;;;;4979810;28;20353;-59
2021/10/10 02:23:46;;;;;;;25.60;17.48;;;10.40;90.80;;;;;;4945426;28;20082;-57
2021/10/10 02:26:13;;;;;;;25.70;16.30;;;10.40;90.70;;;;;;4977592;28;20486;-56
2021/10/10 02:28:40;;;;;;;30.40;19.83;;;10.30;90.80;;;;;;4984796;28;20046;-57
2021/10/10 02:31:07;;;;;;;30.17;20.27;;;10.30;90.90;;;;;;4959383;28;20090;-58
2021/10/10 02:33:33;;;;;;;30.02;18.75;;;10.20;91.00;;;;;;4967296;28;20521;-55
2021/10/10 02:36:00;;;;;;;31.67;18.98;;;10.30;91.10;;;;;;4973516;28;20544;-58
2021/10/10 02:38:27;;;;;;;29.80;19.20;;;10.20;91.10;;;;;;4984357;28;20104;-57
2021/10/10 02:40:54;;;;;;;25.85;17.35;;;10.10;91.10;;;;;;4978829;28;20047;-59
2021/10/10 02:43:20;;;;;;;26.05;17.33;;;10.10;91.00;;;;;;4982371;28;20082;-57
2021/10/10 02:45:47;;;;;;;26.65;17.77;;;10.10;90.90;;;;;;4980646;28;20039;-62
2021/10/10 02:48:14;;;;;;;31.70;18.05;;;10.10;90.90;;;;;;4961327;28;20051;-58
2021/10/10 02:50:41;;;;;;;28.77;18.38;;;10.10;90.90;;;;;;4974940;28;20070;-59
2021/10/10 02:53:07;;;;;;;30.60;17.88;;;10.00;90.90;;;;;;4973347;28;20054;-57
2021/10/10 02:55:34;;;;;;;26.35;17.25;;;10.00;90.90;;;;;;4975856;28;20260;-56
2021/10/10 02:58:01;;;;;;;24.00;16.85;;;10.00;90.90;;;;;;4979664;28;20137;-55
2021/10/10 03:00:28;;;;;;;24.60;15.85;;;9.90;90.90;;;;;;4958112;28;20097;-60
2021/10/10 03:02:56;;;;;;;28.15;17.73;;;9.90;90.90;;;;;;4962069;28;20084;-58
2021/10/10 03:05:23;;;;;;;31.65;19.48;;;9.90;91.10;;;;;;4979945;28;20047;-57
2021/10/10 03:07:50;;;;;;;26.20;17.63;;;9.90;91.10;;;;;;4982330;28;20047;-57
2021/10/10 03:10:17;;;;;;;33.45;20.02;;;9.80;91.10;;;;;;4978087;28;20078;-57
2021/10/10 03:12:43;;;;;;;32.05;18.67;;;9.80;91.10;;;;;;4985347;28;20078;-56
2021/10/10 03:15:11;;;;;;;26.98;17.48;;;9.80;91.10;;;;;;4976270;28;20697;-56
2021/10/10 03:17:38;;;;;;;32.60;20.48;;;9.80;91.20;;;;;;4984296;28;20054;-56
2021/10/10 03:20:05;;;;;;;33.97;19.20;;;9.80;91.30;;;;;;4976325;28;20042;-55
2021/10/10 03:22:32;;;;;;;33.03;18.63;;;9.90;91.30;;;;;;4981134;28;20133;-65
2021/10/10 03:24:59;;;;;;;30.92;19.02;;;9.80;91.30;;;;;;4985488;28;20343;-60
2021/10/10 03:27:26;;;;;;;31.20;19.95;;;9.80;91.30;;;;;;4965638;28;20097;-57
2021/10/10 03:29:53;;;;;;;31.30;19.42;;;9.80;91.30;;;;;;4968107;28;20458;-57
2021/10/10 03:32:20;;;;;;;27.20;18.17;;;9.80;91.30;;;;;;4966238;28;20058;-57
2021/10/10 03:34:47;;;;;;;30.13;19.73;;;9.80;91.30;;;;;;4983312;28;20357;-57
2021/10/10 03:37:14;;;;;;;31.02;19.17;;;9.80;91.40;;;;;;4988245;28;20104;-56
2021/10/10 03:39:41;;;;;;;29.00;17.58;;;9.80;91.40;;;;;;4989910;28;20050;-57
2021/10/10 03:42:07;;;;;;;28.80;18.30;;;9.80;91.40;;;;;;4985356;28;20062;-57
2021/10/10 03:44:34;;;;;;;31.30;18.90;;;9.80;91.40;;;;;;4982388;28;20055;-60
2021/10/10 03:47:01;;;;;;;24.38;16.77;;;9.80;91.40;;;;;;4975486;28;20099;-57
2021/10/10 03:49:28;;;;;;;23.95;16.23;;;9.80;91.30;;;;;;4983444;28;20078;-58
2021/10/10 03:51:55;;;;;;;25.08;16.38;;;9.80;91.10;;;;;;4983920;28;20125;-55
2021/10/10 03:56:49;;;;;;;26.20;17.63;;;9.60;91.00;;;;;;4968143;28;20101;-59
2021/10/10 03:59:16;;;;;;;33.33;20.85;;;9.60;91.30;;;;;;4962000;28;20090;-56
2021/10/10 04:01:43;;;;;;;27.33;17.80;;;9.70;91.40;;;;;;4961271;28;20509;-57
2021/10/10 04:04:10;;;;;;;32.90;18.95;;;9.70;91.40;;;;;;4983424;28;20050;-58
2021/10/10 04:06:37;;;;;;;30.75;18.67;;;9.60;91.60;;;;;;4975151;28;20354;-57
2021/10/10 04:09:03;;;;;;;22.02;15.45;;;9.60;91.30;;;;;;4941183;28;20477;-60
2021/10/10 04:11:30;;;;;;;27.77;17.10;;;9.60;91.10;;;;;;4986297;28;20445;-57
2021/10/10 04:13:57;;;;;;;22.48;14.95;;;9.60;91.00;;;;;;4963463;28;20596;-58
2021/10/10 04:16:24;;;;;;;27.58;17.38;;;9.50;91.10;;;;;;4967010;28;20074;-58
2021/10/10 04:18:50;;;;;;;29.75;17.05;;;9.50;91.10;;;;;;4981581;28;20065;-55
2021/10/10 04:21:17;;;;;;;25.27;17.25;;;9.40;91.10;;;;;;4965632;28;20039;-56
2021/10/10 04:23:44;;;;;;;31.85;18.77;;;9.40;91.20;;;;;;4960873;28;20077;-57
2021/10/10 04:26:11;;;;;;;29.92;18.20;;;9.40;91.50;;;;;;4974309;28;20510;-58
2021/10/10 04:28:37;;;;;;;34.00;19.15;;;9.40;91.20;;;;;;4959164;28;20137;-56
2021/10/10 04:31:04;;;;;;;33.47;19.48;;;9.40;91.20;;;;;;4979791;28;20526;-57
2021/10/10 04:33:31;;;;;;;32.17;19.88;;;9.40;91.40;;;;;;4958048;28;20049;-57
2021/10/10 04:35:58;;;;;;;36.45;20.08;;;9.40;91.50;;;;;;4966584;28;20046;-55
2021/10/10 04:38:25;;;;;;;33.90;19.45;;;9.40;91.50;;;;;;4967123;28;20092;-57
2021/10/10 04:40:52;;;;;;;36.03;22.80;;;9.50;91.40;;;;;;4979046;28;20042;-57
2021/10/10 04:43:18;;;;;;;35.55;22.20;;;9.50;91.60;;;;;;4983212;28;20054;-55
2021/10/10 04:45:45;;;;;;;45.80;23.63;;;9.50;91.60;;;;;;4960310;28;20058;-57
2021/10/10 04:48:12;;;;;;;44.65;24.63;;;9.50;91.70;;;;;;4968341;28;20506;-57
2021/10/10 04:50:38;;;;;;;41.13;24.05;;;9.50;91.90;;;;;;4977527;28;20145;-58
2021/10/10 04:53:05;;;;;;;38.90;23.23;;;9.50;91.90;;;;;;4977513;28;20096;-57
2021/10/10 04:55:33;;;;;;;38.25;23.55;;;9.60;92.00;;;;;;4961164;28;20047;-57
2021/10/10 04:58:01;;;;;;;36.10;21.70;;;9.70;92.30;;;;;;4984876;28;20053;-57
2021/10/10 05:00:28;;;;;;;42.03;23.35;;;9.70;92.00;;;;;;4980394;28;20080;-57
2021/10/10 05:02:55;;;;;;;40.33;23.27;;;9.80;92.00;;;;;;4982516;28;20146;-58
2021/10/10 05:05:22;;;;;;;38.70;20.63;;;9.80;92.00;;;;;;4985594;28;20113;-56
2021/10/10 05:07:48;;;;;;;38.58;23.50;;;9.80;92.00;;;;;;4960514;28;20046;-56
2021/10/10 05:10:15;;;;;;;33.63;22.83;;;9.80;92.00;;;;;;4975641;28;20086;-58
2021/10/10 05:12:42;;;;;;;36.88;23.98;;;9.90;92.00;;;;;;4977915;28;20058;-56
2021/10/10 05:15:09;;;;;;;37.80;23.10;;;9.90;92.00;;;;;;4958240;28;20055;-58
2021/10/10 05:17:36;;;;;;;39.05;24.58;;;9.90;92.00;;;;;;4961846;28;20117;-58
2021/10/10 05:20:03;;;;;;;35.90;23.75;;;10.00;92.10;;;;;;4983233;28;20104;-57
2021/10/10 05:22:30;;;;;;;37.63;23.67;;;10.00;92.10;;;;;;4949900;28;20391;-57
2021/10/10 05:24:59;;;;;;;40.22;24.95;;;10.10;92.10;;;;;;4973104;28;20119;-59
2021/10/10 05:27:26;;;;;;;39.00;24.27;;;10.10;92.00;;;;;;4963632;28;20097;-57
2021/10/10 05:29:52;;;;;;;35.50;24.35;;;10.10;92.10;;;;;;4973174;28;20461;-58
2021/10/10 05:32:19;;;;;;;35.30;23.15;;;10.20;92.10;;;;;;4976062;28;20080;-58
2021/10/10 05:34:46;;;;;;;43.03;23.30;;;10.10;92.30;;;;;;4981715;28;20053;-59
2021/10/10 05:37:13;;;;;;;43.05;25.33;;;10.20;92.10;;;;;;4982307;28;20058;-58
2021/10/10 05:39:39;;;;;;;36.70;23.92;;;10.20;92.10;;;;;;4973738;28;20146;-58
2021/10/10 05:42:06;;;;;;;36.47;24.40;;;10.30;92.10;;;;;;4963819;28;20548;-56
2021/10/10 05:44:33;;;;;;;39.45;24.50;;;10.30;92.10;;;;;;4974139;28;20046;-60
2021/10/10 05:46:59;;;;;;;40.70;25.48;;;10.40;92.10;;;;;;4979097;28;20137;-58
2021/10/10 05:49:26;;;;;;;40.92;23.08;;;10.40;92.10;;;;;;4959670;28;20050;-57
2021/10/10 05:51:53;;;;;;;35.33;23.63;;;10.40;92.10;;;;;;4976757;28;20136;-57
2021/10/10 05:54:22;;;;;;;40.40;25.00;;;10.40;92.10;;;;;;4959910;28;20464;-61
2021/10/10 05:56:49;;;;;;;39.72;23.85;;;10.50;92.10;;;;;;4981749;28;20430;-58
2021/10/10 05:59:16;;;;;;;41.65;23.77;;;10.50;92.10;;;;;;4963083;28;20157;-57
2021/10/10 06:01:43;;;;;;;38.88;24.00;;;10.50;92.10;;;;;;4957907;28;20176;-58
2021/10/10 06:04:10;;;;;;;39.17;25.10;;;10.50;92.10;;;;;;4978292;28;20065;-56
2021/10/10 06:06:37;;;;;;;43.28;26.17;;;10.50;92.20;;;;;;4974432;28;20047;-54
2021/10/10 06:09:05;;;;;;;37.75;24.65;;;10.50;92.20;;;;;;4963024;28;20109;-57
2021/10/10 06:11:32;;;;;;;39.22;24.50;;;10.50;92.20;;;;;;4957307;28;20246;-57
2021/10/10 06:14:02;;;;;;;43.95;26.13;;;10.60;92.20;;;;;;4962862;28;20146;-59
2021/10/10 06:16:29;;;;;;;42.38;24.77;;;10.70;92.30;;;;;;4973254;28;20082;-58
2021/10/10 06:18:56;;;;;;;40.90;24.48;;;10.60;92.30;;;;;;4980456;28;20055;-58
2021/10/10 06:21:23;;;;;;;41.05;25.77;;;10.70;92.30;;;;;;4955290;28;20101;-62
2021/10/10 06:23:49;;;;;;;40.50;23.92;;;10.70;92.30;;;;;;4955212;28;20463;-56
2021/10/10 06:26:16;;;;;;;47.28;26.48;;;10.80;92.30;;;;;;4976890;28;20089;-57
2021/10/10 06:28:43;;;;;;;53.25;26.27;;;10.80;92.30;;;;;;4970064;28;20178;-56
2021/10/10 06:31:10;;;;;;;42.95;25.92;;;10.80;92.20;;;;;;4968809;28;20051;-57
2021/10/10 06:33:36;;;;;;;46.05;26.60;;;10.90;92.20;;;;;;4973678;28;20090;-57
2021/10/10 06:36:04;;;;;;;45.55;26.58;;;10.90;92.20;;;;;;4978302;28;20685;-57
2021/10/10 06:38:30;;;;;;;42.35;27.48;;;10.90;92.30;;;;;;4975245;28;20207;-57
2021/10/10 06:40:57;;;;;;;44.22;25.75;;;11.00;92.30;;;;;;4976520;28;20390;-58
2021/10/10 06:43:24;;;;;;;44.50;26.02;;;11.00;92.30;;;;;;4979623;28;20046;-57
2021/10/10 06:45:51;;;;;;;51.38;28.58;;;11.00;92.20;;;;;;4977639;28;20047;-59
2021/10/10 06:48:18;;;;;;;43.85;27.40;;;11.00;92.20;;;;;;4981430;28;20051;-59
2021/10/10 06:50:44;;;;;;;48.65;26.63;;;11.10;92.20;;;;;;4960424;28;20163;-63
2021/10/10 06:53:11;;;;;;;45.35;26.15;;;11.20;92.20;;;;;;4938745;28;20320;-56
2021/10/10 06:55:38;;;;;;;41.70;25.65;;;11.10;92.40;;;;;;4977681;28;20054;-58
2021/10/10 06:58:04;;;;;;;39.35;24.65;;;11.10;92.20;;;;;;4983097;28;20074;-58
2021/10/10 07:00:33;;;;;;;40.60;24.73;;;11.10;92.20;;;;;;4977882;28;20521;-57
2021/10/10 07:03:00;;;;;;;42.88;26.55;;;11.10;92.20;;;;;;4981214;28;20046;-57
2021/10/10 07:05:27;;;;;;;43.35;24.75;;;11.20;92.20;;;;;;4977080;28;20069;-57
2021/10/10 07:07:53;;;;;;;43.40;27.33;;;11.20;92.20;;;;;;4980098;28;20054;-57
2021/10/10 07:10:20;;;;;;;40.90;25.20;;;11.20;92.20;;;;;;4981036;28;20199;-58
2021/10/10 07:12:47;;;;;;;42.03;26.85;;;11.20;92.20;;;;;;4980613;28;20108;-58
2021/10/10 07:15:14;;;;;;;46.72;27.48;;;11.30;92.20;;;;;;4962650;28;20074;-58
2021/10/10 07:17:41;;;;;;;48.28;28.50;;;11.30;92.20;;;;;;4981208;28;20078;-58
2021/10/10 07:20:13;;;;;;;43.05;26.10;;;11.30;92.20;;;;;;4982101;28;20046;-59
2021/10/10 07:25:08;;;;;;;45.22;25.92;;;11.40;92.20;;;;;;4974708;28;20093;-58
2021/10/10 07:27:36;;;;;;;43.47;26.55;;;11.40;92.20;;;;;;4971862;28;20085;-56
2021/10/10 07:30:04;;;;;;;46.17;28.70;;;11.40;92.20;;;;;;4972460;28;20449;-55
2021/10/10 07:32:31;;;;;;;44.35;26.42;;;11.50;92.20;;;;;;4978078;28;20042;-57
2021/10/10 07:34:58;;;;;;;44.58;27.10;;;11.50;92.20;;;;;;4978759;28;20220;-61
2021/10/10 07:37:25;;;;;;;42.10;26.98;;;11.50;92.20;;;;;;4977401;28;20133;-56
2021/10/10 07:39:52;;;;;;;48.00;27.73;;;11.50;92.20;;;;;;4975800;28;20109;-58
2021/10/10 07:42:21;;;;;;;47.45;29.45;;;11.50;92.20;;;;;;4969743;28;20078;-56
2021/10/10 07:44:51;;;;;;;46.72;28.85;;;11.60;92.30;;;;;;4977006;28;20104;-56
2021/10/10 07:49:53;;;;;;;45.45;28.30;;;11.60;92.20;;;;;;4976670;28;20061;-57
2021/10/10 07:52:20;;;;;;;45.17;28.55;;;11.60;92.20;;;;;;4979722;28;20067;-57
2021/10/10 07:54:47;;;;;;;44.47;28.65;;;11.70;92.20;;;;;;4973879;28;20046;-59
2021/10/10 07:57:14;;;;;;;44.47;26.88;;;11.70;92.30;;;;;;4980146;28;20077;-57
2021/10/10 07:59:41;;;;;;;47.72;29.13;;;11.70;92.20;;;;;;4957515;28;20137;-59
2021/10/10 08:02:08;;;;;;;51.78;28.88;;;11.70;92.20;;;;;;4979434;28;20477;-56
2021/10/10 08:04:35;;;;;;;48.10;28.00;;;11.80;92.20;;;;;;4957526;28;20055;-57
2021/10/10 08:07:02;;;;;;;44.97;28.50;;;11.80;92.30;;;;;;4976924;28;20684;-60
2021/10/10 08:09:29;;;;;;;51.10;28.98;;;11.90;92.20;;;;;;4976233;28;20082;-58
2021/10/10 08:11:55;;;;;;;50.78;27.95;;;11.90;92.20;;;;;;4971147;28;20137;-56
2021/10/10 08:14:22;;;;;;;46.63;27.02;;;12.00;92.30;;;;;;4971436;28;20077;-63
2021/10/10 08:16:49;;;;;;;45.90;28.70;;;12.00;92.30;;;;;;4630095;28;10000636;-57
2021/10/10 08:19:17;;;;;;;56.92;28.25;;;12.00;92.30;;;;;;4967957;28;20109;-56
2021/10/10 08:21:44;;;;;;;48.47;28.73;;;12.00;92.20;;;;;;4966840;28;20043;-58
2021/10/10 08:24:12;;;;;;;45.05;27.13;;;12.10;92.10;;;;;;4969023;28;20086;-57
2021/10/10 08:26:38;;;;;;;48.00;28.75;;;12.10;92.20;;;;;;4968338;28;20051;-55
2021/10/10 08:29:05;;;;;;;50.63;26.98;;;12.10;92.20;;;;;;4946743;28;20083;-57
2021/10/10 08:31:32;;;;;;;45.92;28.33;;;12.10;92.10;;;;;;4974477;28;20116;-57
2021/10/10 08:33:59;;;;;;;42.60;28.08;;;12.20;92.10;;;;;;4966723;28;20130;-56
2021/10/10 08:36:44;;;;;;;47.95;27.23;;;12.20;92.10;;;;;;4971742;28;20126;-56
2021/10/10 08:39:11;;;;;;;46.97;28.48;;;12.20;92.10;;;;;;4962374;28;20094;-55
2021/10/10 08:41:38;;;;;;;44.08;26.80;;;12.20;92.20;;;;;;4968675;28;20057;-58
2021/10/10 08:44:04;;;;;;;45.42;26.85;;;12.30;92.10;;;;;;4954961;28;20118;-59
2021/10/10 08:46:34;;;;;;;45.13;27.75;;;12.30;92.10;;;;;;4950060;28;20142;-59
2021/10/10 08:49:04;;;;;;;43.67;28.30;;;12.40;92.20;;;;;;4951399;28;20047;-59
2021/10/10 08:51:35;;;;;;;42.58;28.42;;;12.40;92.20;;;;;;4961193;28;20131;-57
2021/10/10 08:54:02;;;;;;;47.10;28.23;;;12.50;92.20;;;;;;4967648;28;20134;-56
2021/10/10 08:56:29;;;;;;;48.63;28.10;;;12.60;92.20;;;;;;4962954;28;20073;-56
2021/10/10 08:59:00;;;;;;;43.45;27.92;;;12.60;92.10;;;;;;4964581;28;20085;-57
2021/10/10 09:01:32;;;;;;;46.95;27.33;;;12.70;92.00;;;;;;4930661;28;20609;-60
2021/10/10 09:03:59;;;;;;;46.08;27.52;;;12.80;92.10;;;;;;4964705;28;20095;-59
2021/10/10 09:06:26;;;;;;;51.72;28.75;;;12.90;91.90;;;;;;4956757;28;20137;-57
2021/10/10 09:08:53;;;;;;;44.58;27.30;;;12.90;91.90;;;;;;4964823;28;20062;-58
2021/10/10 09:11:20;;;;;;;48.40;28.20;;;13.00;91.90;;;;;;4977912;28;20562;-57
2021/10/10 09:13:48;;;;;;;46.25;27.70;;;13.00;91.90;;;;;;4971763;28;20043;-61
2021/10/10 09:16:15;;;;;;;46.80;26.38;;;13.10;91.90;;;;;;4973111;28;20054;-57
2021/10/10 09:18:43;;;;;;;46.13;28.55;;;13.20;91.80;;;;;;4955497;28;20058;-57
2021/10/10 09:21:23;;;;;;;43.80;27.75;;;13.30;91.80;;;;;;4970186;28;20145;-57
2021/10/10 09:23:51;;;;;;;48.58;28.75;;;13.30;91.70;;;;;;4977402;28;20054;-57
2021/10/10 09:26:19;;;;;;;46.67;27.92;;;13.40;91.80;;;;;;4963868;28;20612;-57
2021/10/10 09:28:46;;;;;;;49.40;27.27;;;13.50;91.70;;;;;;4973974;28;20061;-57
2021/10/10 09:31:13;;;;;;;43.95;26.08;;;13.60;91.70;;;;;;4972928;28;20086;-57
2021/10/10 09:33:40;;;;;;;52.97;27.88;;;13.70;91.70;;;;;;4969392;28;20055;-58
2021/10/10 09:36:16;;;;;;;43.47;26.88;;;13.80;91.50;;;;;;4968422;28;20467;-57
2021/10/10 09:38:54;;;;;;;47.22;26.83;;;13.80;91.40;;;;;;4967971;28;20145;-57
2021/10/10 09:41:26;;;;;;;40.78;27.05;;;13.80;91.30;;;;;;4946416;28;20051;-55
2021/10/10 09:43:57;;;;;;;45.72;26.50;;;13.80;91.40;;;;;;4969301;28;20746;-57
2021/10/10 09:46:28;;;;;;;45.80;25.55;;;13.80;91.40;;;;;;4959598;28;20097;-58
2021/10/10 09:48:55;;;;;;;37.33;23.23;;;13.90;91.40;;;;;;4970012;28;20478;-57
2021/10/10 09:51:35;;;;;;;43.10;25.80;;;13.90;91.30;;;;;;4966583;28;20647;-57
2021/10/10 09:54:03;;;;;;;47.00;24.77;;;14.00;91.50;;;;;;4969437;28;20113;-58
2021/10/10 09:56:29;;;;;;;41.67;26.00;;;14.10;91.50;;;;;;4966105;28;20129;-58
2021/10/10 09:58:56;;;;;;;46.45;25.92;;;14.10;91.30;;;;;;4966933;28;20056;-59
2021/10/10 10:01:24;;;;;;;45.67;24.85;;;14.10;91.20;;;;;;4965305;28;20082;-58
2021/10/10 10:03:56;;;;;;;44.05;26.58;;;14.20;91.20;;;;;;4950974;28;20141;-58
2021/10/10 10:06:23;;;;;;;39.55;26.15;;;14.20;91.30;;;;;;4968124;28;20101;-58
2021/10/10 10:08:50;;;;;;;53.42;28.15;;;14.20;91.10;;;;;;4971978;28;20129;-57
2021/10/10 10:11:17;;;;;;;40.88;25.00;;;14.20;91.10;;;;;;4967141;28;20113;-57
2021/10/10 10:13:44;;;;;;;41.78;25.17;;;14.30;91.20;;;;;;4977570;28;20096;-58
2021/10/10 10:16:13;;;;;;;45.47;26.13;;;14.40;91.00;;;;;;4966117;28;20070;-57
2021/10/10 10:18:41;;;;;;;37.67;24.15;;;14.50;90.90;;;;;;4972622;28;20193;-58
2021/10/10 10:21:08;;;;;;;45.92;25.77;;;14.50;90.80;;;;;;4961363;28;20391;-58
2021/10/10 10:23:36;;;;;;;43.05;25.50;;;14.50;90.90;;;;;;4961959;28;20074;-57
2021/10/10 10:26:04;;;;;;;38.22;23.65;;;14.50;91.00;;;;;;4962479;28;20599;-60
2021/10/10 10:28:31;;;;;;;42.90;25.90;;;14.60;90.80;;;;;;4963426;28;20042;-58
2021/10/10 10:30:59;;;;;;;41.50;24.77;;;14.70;90.90;;;;;;4966367;28;20134;-56
2021/10/10 10:33:32;;;;;;;42.83;24.08;;;14.70;90.70;;;;;;4943873;28;20066;-58
2021/10/10 10:35:58;;;;;;;43.42;24.67;;;14.70;90.50;;;;;;4966238;28;20334;-57
2021/10/10 10:38:44;;;;;;;39.08;24.02;;;14.60;90.70;;;;;;4967331;28;20047;-58
2021/10/10 10:41:46;;;;;;;41.65;25.55;;;14.60;90.80;;;;;;4971614;28;20517;-57
2021/10/10 10:44:35;;;;;;;40.28;23.15;;;14.70;90.50;;;;;;4963063;28;20106;-58
2021/10/10 10:47:03;;;;;;;35.75;23.23;;;14.60;90.20;;;;;;4964107;28;20210;-58
2021/10/10 10:52:26;;;;;;;33.35;22.77;;;14.70;90.80;;;;;;4955235;28;20578;-57
2021/10/10 10:54:59;;;;;;;;;;;14.70;90.80;;;;;;4968858;28;20133;-58
2021/10/10 10:57:33;;;;;;;38.92;21.80;;;14.80;90.70;;;;;;4962850;28;20028;-58
2021/10/10 11:00:05;;;;;;;40.58;24.88;;;14.80;90.60;;;;;;4961910;28;20138;-58
2021/10/10 11:02:47;;;;;;;39.85;24.65;;;14.90;90.70;;;;;;4955307;28;20051;-56
2021/10/10 11:05:31;;;;;;;34.10;20.92;;;14.90;90.60;;;;;;4968236;28;20057;-57
2021/10/10 11:07:59;;;;;;;38.65;23.42;;;14.80;90.70;;;;;;4966096;28;20136;-58
2021/10/10 11:10:26;;;;;;;41.97;23.20;;;14.90;90.70;;;;;;4963701;28;20110;-57
2021/10/10 11:13:05;;;;;;;36.78;23.17;;;15.00;90.80;;;;;;4964144;28;20537;-58
2021/10/10 11:15:55;;;;;;;34.97;24.02;;;15.00;91.20;;;;;;4958961;28;20073;-58
2021/10/10 11:18:25;;;;;;;40.50;23.33;;;15.00;91.60;;;;;;4964204;28;20065;-58
2021/10/10 11:21:04;;;;;;;37.53;22.58;;;14.90;91.10;;;;;;4964949;28;20133;-57
2021/10/10 11:23:31;;;;;;;40.25;23.48;;;14.90;92.10;;;;;;4972516;28;20162;-57
2021/10/10 11:26:01;;;;;;;38.53;24.60;;;14.80;91.50;;;;;;4959643;28;20074;-58
2021/10/10 11:28:34;;;;;;;40.55;23.88;;;14.90;91.70;;;;;;4969280;28;20841;-58
2021/10/10 11:31:11;;;;;;;42.03;24.40;;;15.00;92.40;;;;;;4971864;28;20051;-58
2021/10/10 11:33:40;;;;;;;35.33;21.30;;;15.00;92.50;;;;;;4967436;28;20450;-58
2021/10/10 11:36:07;;;;;;;34.92;21.42;;;15.00;92.30;;;;;;4974531;28;20482;-59
2021/10/10 11:38:51;;;;;;;31.95;19.83;;;15.00;92.40;;;;;;4946543;28;20102;-58
2021/10/10 11:41:18;;;;;;;28.67;18.73;;;15.00;93.70;;;;;;4969809;28;20109;-59
2021/10/10 11:44:02;;;;;;;31.45;17.13;;;15.00;92.60;;;;;;4972136;28;20104;-58
2021/10/10 11:46:42;;;;;;;24.45;14.95;;;15.10;93.80;;;;;;4966725;28;20050;-58
2021/10/10 11:49:37;;;;;;;18.73;12.07;;;15.20;93.70;;;;;;4966068;28;20082;-58
2021/10/10 11:52:24;;;;;;;13.27;8.68;;;15.20;94.00;;;;;;4962261;28;20125;-58
2021/10/10 11:55:02;;;;;;;12.13;8.80;;;15.30;93.90;;;;;;4965905;28;20860;-59
2021/10/10 11:57:29;;;;;;;11.80;7.95;;;15.30;93.40;;;;;;4964074;28;20082;-58
2021/10/10 11:59:57;;;;;;;7.68;5.90;;;15.40;93.20;;;;;;4971319;28;20090;-59
2021/10/10 12:02:24;;;;;;;9.60;7.18;;;15.40;93.20;;;;;;4982367;28;20101;-58
2021/10/10 12:05:05;;;;;;;13.30;8.38;;;15.50;93.20;;;;;;4968758;28;20521;-59
2021/10/10 12:07:32;;;;;;;12.00;7.18;;;15.50;93.90;;;;;;4969642;28;20054;-58
2021/10/10 12:09:59;;;;;;;12.90;7.28;;;15.60;93.40;;;;;;4969719;28;20061;-59
2021/10/10 12:12:25;;;;;;;10.88;7.20;;;15.70;93.40;;;;;;4977039;28;20077;-59
2021/10/10 12:14:56;;;;;;;10.88;7.90;;;15.70;93.40;;;;;;4977532;28;20089;-58
2021/10/10 12:17:32;;;;;;;12.00;8.25;;;15.80;93.50;;;;;;4969373;28;20481;-59
2021/10/10 12:20:15;;;;;;;10.38;7.95;;;15.90;93.30;;;;;;4976175;28;20100;-58
2021/10/10 12:22:52;;;;;;;16.13;8.07;;;16.00;93.20;;;;;;4974148;28;20086;-58
2021/10/10 12:25:43;;;;;;;11.75;7.90;;;16.10;93.30;;;;;;4968599;28;20050;-58
2021/10/10 12:28:16;;;;;;;11.95;7.90;;;16.20;93.70;;;;;;4970973;28;20284;-58
2021/10/10 12:30:54;;;;;;;10.30;7.53;;;16.30;93.10;;;;;;4971433;28;20619;-58
2021/10/10 12:33:20;;;;;;;13.63;7.95;;;16.40;92.80;;;;;;4965274;28;20509;-58
2021/10/10 12:36:06;;;;;;;10.13;8.02;;;16.50;92.60;;;;;;4962635;28;20074;-58
2021/10/10 12:38:34;;;;;;;11.32;7.07;;;16.50;92.70;;;;;;4960975;28;20101;-58
2021/10/10 12:41:20;;;;;;;9.80;7.80;;;16.50;92.30;;;;;;4962424;28;20714;-57
2021/10/10 12:43:55;;;;;;;8.65;7.18;;;16.60;92.40;;;;;;4954090;28;20043;-57
2021/10/10 12:46:24;;;;;;;11.05;8.02;;;16.60;92.50;;;;;;4964073;28;20054;-59
2021/10/10 12:49:03;;;;;;;11.38;7.57;;;16.70;92.20;;;;;;4963260;28;20074;-58